• Join FlightAware (Why Join?)
  • Login
  • US Flag 
04:59PM EDT


 

Airport Tracker/Info


-or-


 

Live Flight TrackerFlight Track Log ✈ N899MA ✈ 14-Jun-2013 ✈ KANE - KEYE

Flight Track Log - Related Links

Times and Time Zones

All times are in EDT time to prevent confusion due to time zone crossing. See the N899MA flight status page for this flight to view local times or setup timezone preferences in your user account.

Time Position Orientation Groundspeed Altitude Reporting Facility
EDT Latitude Longitude Course Direction KTS MPH feet Rate Location/Type
03:11PM 45.1450 -93.1325 153° Southeast 196 226 3,500  Level Minneapolis Center
03:12PM 45.1428 -93.0125 91° East 253 291 6,300 2,880 Climbing Minneapolis Center
03:13PM 45.0847 -92.9572 146° Southeast 256 295 9,600 3,060 Climbing Minneapolis Center
03:14PM 45.0219 -92.9106 152° Southeast 255 293 12,700 2,580 Climbing Minneapolis Center
03:15PM 44.9706 -92.8747 154° Southeast 257 296 15,000 2,400 Climbing Minneapolis Center
03:16PM 44.7542 -92.6385 153° Southeast  Level Estimated
03:16PM 44.8953 -92.7922 142° Southeast 296 341 17,700  Level Minneapolis Center
03:17PM 44.8336 -92.7092 136° Southeast 303 349 20,000 2,460 Climbing Minneapolis Center
03:18PM 44.7581 -92.6053 136° Southeast 315 362 22,800 2,460 Climbing Minneapolis Center
03:19PM 44.6944 -92.5178 136° Southeast 318 366 25,100 1,980 Climbing Minneapolis Center
03:20PM 44.6292 -92.4300 136° Southeast 323 372 27,000 1,800 Climbing Minneapolis Center
03:21PM 44.5628 -92.3408 136° Southeast 328 377 28,900 1,800 Climbing Minneapolis Center
03:22PM 44.4944 -92.2472 136° Southeast 340 391 30,800 1,740 Climbing Minneapolis Center
03:23PM 44.4250 -92.1536 136° Southeast 347 399 32,600 1,920 Climbing Minneapolis Center
03:24PM 44.3389 -92.0381 136° Southeast 356 410 34,800 1,920 Climbing Minneapolis Center
03:25PM 44.2706 -91.9433 135° Southeast 352 405 36,600 1,560 Climbing Minneapolis Center
03:26PM 44.2025 -91.8517 136° Southeast 344 396 38,100 1,320 Climbing Minneapolis Center
03:27PM 44.1344 -91.7619 137° Southeast 339 390 39,400 1,140 Climbing Minneapolis Center
03:28PM 44.0572 -91.6617 137° Southeast 342 394 40,500 720 Climbing Minneapolis Center
03:29PM 43.9861 -91.5669 136° Southeast 351 404 41,000 240 Climbing Minneapolis Center
03:30PM 43.9086 -91.4678 137° Southeast 371 427 41,000  Level Minneapolis Center
03:31PM 43.8258 -91.3569 136° Southeast 402 463 41,000  Level Minneapolis Center
03:32PM 43.7408 -91.2375 135° Southeast 427 491 41,000  Level Minneapolis Center
03:33PM 43.6325 -91.0881 135° Southeast 452 520 41,000  Level Minneapolis Center
03:34PM 43.5767 -91.0158 137° Southeast 458 527 41,000  Level Chicago Center
03:35PM 43.4867 -90.8983 137° Southeast 450 518 41,000  Level Chicago Center
03:35PM 43.4497 -90.8494 136° Southeast 453 521 41,000  Level Minneapolis Center
03:37PM 43.3581 -90.7317 137° Southeast 452 520 41,000  Level Minneapolis Center
03:37PM 43.3047 -90.6617 136° Southeast 452 520 41,000  Level Chicago Center
03:38PM 43.2133 -90.5431 137° Southeast 454 522 41,000  Level Chicago Center
03:39PM 43.1022 -90.4014 137° Southeast 456 525 41,000  Level Chicago Center
03:40PM 43.0106 -90.2850 137° Southeast 453 521 41,000  Level Chicago Center
03:41PM 42.9214 -90.1697 137° Southeast 446 513 41,000  Level Chicago Center
03:42PM 42.8303 -90.0561 138° Southeast 446 513 41,000  Level Chicago Center
03:43PM 42.7403 -89.9419 137° Southeast 445 512 41,000 -60 Level Chicago Center
03:44PM 42.6414 -89.8186 137° Southeast 453 521 40,900 -660 Descending Chicago Center
03:45PM 42.5328 -89.6819 137° Southeast 456 525 39,700 -1,080 Descending Chicago Center
03:46PM 42.4403 -89.5664 137° Southeast 456 525 38,700 -960 Descending Chicago Center
03:47PM 42.3456 -89.4486 137° Southeast 461 531 37,700 -960 Descending Chicago Center
03:48PM 42.2519 -89.3339 138° Southeast 457 526 36,700 -1,020 Descending Chicago Center
03:49PM 42.1578 -89.2203 138° Southeast 455 524 35,700 -1,020 Descending Chicago Center
03:51PM 42.0478 -89.0889 138° Southeast 454 522 34,600 -1,080 Descending Chicago Center
03:52PM 41.9550 -88.9728 137° Southeast 457 526 33,500 -780 Descending Chicago Center
03:53PM 41.8606 -88.8592 138° Southeast 459 528 33,000 -300 Descending Chicago Center
03:54PM 41.7669 -88.7450 138° Southeast 458 527 33,000  Level Chicago Center
03:55PM 41.6733 -88.6317 138° Southeast 457 526 33,000 -420 Level Chicago Center
03:56PM 41.5589 -88.4947 138° Southeast 465 535 32,200 -900 Descending Chicago Center
03:57PM 41.4606 -88.3775 138° Southeast 477 549 31,200 -1,020 Descending Chicago Center
03:58PM 41.3644 -88.2636 138° Southeast 473 544 30,100 -1,080 Descending Chicago Center
03:59PM 41.2514 -88.1294 138° Southeast 467 537 29,000 -540 Descending Chicago Center
04:00PM 41.1594 -88.0203 138° Southeast 456 525 29,000  Level Chicago Center
04:01PM 41.0689 -87.9131 138° Southeast 445 512 29,000 -540 Level Chicago Center
04:02PM 40.9761 -87.8042 138° Southeast 448 516 27,900 -1,260 Descending Chicago Center
04:03PM 40.8839 -87.6958 138° Southeast 447 514 26,400 -960 Descending Chicago Center
04:04PM 40.7778 -87.5731 139° Southeast 430 495 26,000 -780 Descending Chicago Center
04:05PM 40.6919 -87.4750 139° Southeast 415 478 24,800 -1,320 Descending Chicago Center
04:06PM 40.6078 -87.3756 138° Southeast 410 472 23,300 -1,500 Descending Chicago Center
04:07PM 40.5258 -87.2828 139° Southeast 397 457 21,800 -1,680 Descending Chicago Center
04:08PM 40.4428 -87.1900 140° Southeast 384 442 19,800 -1,920 Descending Chicago Center
04:09PM 40.3633 -87.0981 139° Southeast 381 438 17,900 -2,040 Descending Chicago Center
04:10PM 40.2753 -86.9994 139° Southeast 352 405 15,700 -1,920 Descending Chicago Center
04:11PM 40.2056 -86.9211 139° Southeast 336 387 14,000 -1,620 Descending Chicago Center
04:12PM 40.1400 -86.8422 137° Southeast 325 374 12,400 -1,680 Descending Chicago Center
04:13PM 40.0831 -86.7572 131° Southeast 311 358 10,700 -1,680 Descending Indianapolis Center
04:14PM 40.0247 -86.6781 134° Southeast 306 352 9,100 -1,560 Descending Indianapolis Center
04:15PM 39.9658 -86.6064 137° Southeast 295 339 7,500 -1,620 Descending Indianapolis Center
04:16PM 39.9097 -86.5375 137° Southeast 286 329 5,800 -1,500 Descending Indianapolis Center
04:17PM 39.8764 -86.4611 120° Southeast 258 297 4,500 -1,020 Descending Indianapolis Center
04:18PM 39.8453 -86.3711 114° Southeast 249 287 3,700 -780 Descending Indianapolis Center